Ponca City Regional Airport
KPNC : now visible

Airfield :











YOU CAN JOIN US ON...

 
LOGIN :

Register | Disclaimer

   EN    FR    IT 

 









Legend :    VFR   Marginal VFR   IFR   Intensive IFR   Very Intensive IFR
Visi :
Ceiling :
>= 8 km
>= 3000ft
5 to 8 km
1000 to 3000 ft
1500m to 5 km
500 to 1000 ft
800 to 1500m
200 to 500 ft
< 800m
< 200 ft
Symbols :   Thunderstorms  Fog  Heavy snow  Heavy precipitations  Wind > 20 kt







- Airport Elevation : 1008 ft


KPNC - Ponca City Regional

CURRENT METAR :
  • 191153Z AUTO 34007KT 10SM CLR 07/03 A3007 RMK AO2 SLP180 70006 T00720033 10106 20061 53021

EXPIRED METARs :
  • 191053Z AUTO 35009KT 10SM CLR 08/03 A3004 RMK AO2 SLP171 T00780033
  • 190953Z AUTO 35013KT 10SM CLR 08/04 A3002 RMK AO2 SLP161 T00830039

TAF KPNC
Valid from the 19 at 12:00 until the 20 at 12:00 UTC


191120Z 1912/2012 35013KT P6SM SKC
FM191500 35015G24KT P6SM FEW040 FEW250
FM200100 04003KT P6SM FEW250
KZKC FIR / North America



MET'MAP, your aeronautical weather chart ! - Copyright ORBIFLY December 2007 - Disclaimer

ORBIFLY MET'MAP TEAM :

Programming & Development : Alexandra Zaïnal
Concept & Development : Baudouin d'Aumeries
Co-Development & Prog : Marc-Olivier Méhu
Technical & hardware support : Manuel Goepfert

Contact : metmap@orbifly.com




SOURCES & CREDITS :

   NOAA       Earth
Advisory